N2855K FOOL-FOOG
Flight info
| Callsign | N2855K |
|---|---|
| Flight time | 1h 12m |
| Altitude | 3500 |
| Route | FDGR |
| Aircraft | BE36/L-SDE2E3FGHIRWXY/LB1 |
Departure
| Time | 2026-04-13 18:13 |
|---|---|
| Airport | Libreville Leon M'ba International Airport (FOOL) |
Arrival
| Time | 2026-04-13 19:26 |
|---|---|
| Airport | Port Gentil International Airport (FOOG) |
| Time | Latitude | Longitude | Altitude | Speed | Heading |
|---|---|---|---|---|---|
| 2026-04-13 17:59 | 0.46081 | 9.40909 | 33 ft | 0 kts | 58° |
| 2026-04-13 18:08 | 0.46083 | 9.40913 | 33 ft | 4 kts | 63° |
| 2026-04-13 18:08 | 0.46053 | 9.40965 | 33 ft | 13 kts | 148° |
| 2026-04-13 18:09 | 0.45972 | 9.41016 | 32 ft | 14 kts | 141° |
| 2026-04-13 18:09 | 0.45886 | 9.41067 | 32 ft | 15 kts | 154° |
| 2026-04-13 18:09 | 0.45808 | 9.41121 | 32 ft | 11 kts | 114° |
| 2026-04-13 18:09 | 0.45815 | 9.41174 | 31 ft | 0 kts | 57° |
| 2026-04-13 18:11 | 0.45816 | 9.41176 | 31 ft | 4 kts | 57° |
| 2026-04-13 18:11 | 0.45860 | 9.41229 | 31 ft | 12 kts | 10° |
| 2026-04-13 18:11 | 0.45887 | 9.41222 | 31 ft | 0 kts | 333° |
| 2026-04-13 18:12 | 0.45889 | 9.41221 | 31 ft | 0 kts | 332° |
| 2026-04-13 18:12 | 0.46016 | 9.41159 | 31 ft | 51 kts | 334° |
| 2026-04-13 18:12 | 0.46480 | 9.40931 | 49 ft | 91 kts | 334° |
| 2026-04-13 18:12 | 0.47081 | 9.40634 | 209 ft | 100 kts | 333° |
| 2026-04-13 18:13 | 0.47703 | 9.40317 | 429 ft | 99 kts | 333° |
| 2026-04-13 18:13 | 0.48224 | 9.39896 | 656 ft | 100 kts | 291° |
| 2026-04-13 18:13 | 0.48064 | 9.39252 | 892 ft | 100 kts | 240° |
| 2026-04-13 18:13 | 0.47730 | 9.38644 | 1097 ft | 100 kts | 243° |
| 2026-04-13 18:14 | 0.47398 | 9.38035 | 1271 ft | 100 kts | 243° |
| 2026-04-13 18:14 | 0.47064 | 9.37423 | 1446 ft | 101 kts | 243° |
| 2026-04-13 18:14 | 0.46637 | 9.36883 | 1618 ft | 103 kts | 205° |
| 2026-04-13 18:14 | 0.45953 | 9.36997 | 1778 ft | 105 kts | 153° |
| 2026-04-13 18:15 | 0.45294 | 9.37307 | 1928 ft | 105 kts | 156° |
| 2026-04-13 18:15 | 0.44631 | 9.37617 | 2083 ft | 105 kts | 156° |
| 2026-04-13 18:15 | 0.43967 | 9.37926 | 2241 ft | 106 kts | 156° |
| 2026-04-13 18:15 | 0.43301 | 9.38244 | 2398 ft | 107 kts | 156° |
| 2026-04-13 18:16 | 0.42634 | 9.38565 | 2556 ft | 107 kts | 156° |
| 2026-04-13 18:16 | 0.42066 | 9.39019 | 2694 ft | 108 kts | 116° |
| 2026-04-13 18:16 | 0.41754 | 9.39702 | 2840 ft | 109 kts | 117° |
| 2026-04-13 18:16 | 0.41425 | 9.40383 | 2987 ft | 110 kts | 116° |
| 2026-04-13 18:17 | 0.41099 | 9.41070 | 3129 ft | 110 kts | 116° |
| 2026-04-13 18:17 | 0.40771 | 9.41756 | 3263 ft | 110 kts | 116° |
| 2026-04-13 18:17 | 0.40444 | 9.42441 | 3395 ft | 110 kts | 116° |
| 2026-04-13 18:17 | 0.40112 | 9.43140 | 3499 ft | 117 kts | 116° |
| 2026-04-13 18:18 | 0.39736 | 9.43934 | 3517 ft | 136 kts | 116° |
| 2026-04-13 18:18 | 0.39311 | 9.44833 | 3514 ft | 149 kts | 113° |
| 2026-04-13 18:18 | 0.38904 | 9.45810 | 3515 ft | 156 kts | 119° |
| 2026-04-13 18:18 | 0.38207 | 9.46641 | 3520 ft | 158 kts | 142° |
| 2026-04-13 18:19 | 0.37313 | 9.47293 | 3520 ft | 159 kts | 146° |
| 2026-04-13 18:19 | 0.36405 | 9.47935 | 3521 ft | 161 kts | 146° |
| 2026-04-13 18:19 | 0.35483 | 9.48588 | 3515 ft | 164 kts | 146° |
| 2026-04-13 18:19 | 0.34549 | 9.49253 | 3509 ft | 166 kts | 146° |
| 2026-04-13 18:20 | 0.33608 | 9.49922 | 3506 ft | 166 kts | 146° |
| 2026-04-13 18:20 | 0.32666 | 9.50592 | 3507 ft | 167 kts | 146° |
| 2026-04-13 18:20 | 0.31721 | 9.51264 | 3507 ft | 168 kts | 146° |
| 2026-04-13 18:20 | 0.30772 | 9.51940 | 3506 ft | 168 kts | 146° |
| 2026-04-13 18:21 | 0.29825 | 9.52613 | 3507 ft | 167 kts | 146° |
| 2026-04-13 18:21 | 0.28881 | 9.53285 | 3503 ft | 167 kts | 146° |
| 2026-04-13 18:21 | 0.27937 | 9.53957 | 3506 ft | 167 kts | 146° |
| 2026-04-13 18:21 | 0.26994 | 9.54628 | 3503 ft | 167 kts | 146° |
| 2026-04-13 18:22 | 0.26049 | 9.55299 | 3506 ft | 167 kts | 146° |
| 2026-04-13 18:22 | 0.25108 | 9.55969 | 3504 ft | 167 kts | 146° |
| 2026-04-13 18:22 | 0.24162 | 9.56642 | 3507 ft | 168 kts | 146° |
| 2026-04-13 18:22 | 0.23209 | 9.57321 | 3507 ft | 169 kts | 146° |
| 2026-04-13 18:23 | 0.22250 | 9.58003 | 3508 ft | 170 kts | 146° |
| 2026-04-13 18:23 | 0.21288 | 9.58687 | 3509 ft | 170 kts | 146° |
| 2026-04-13 18:23 | 0.20322 | 9.59374 | 3510 ft | 171 kts | 146° |
| 2026-04-13 18:23 | 0.19358 | 9.60060 | 3509 ft | 170 kts | 146° |
| 2026-04-13 18:24 | 0.18396 | 9.60745 | 3507 ft | 170 kts | 146° |
| 2026-04-13 18:24 | 0.17436 | 9.61428 | 3507 ft | 170 kts | 146° |
| 2026-04-13 18:24 | 0.16477 | 9.62110 | 3507 ft | 169 kts | 146° |
| 2026-04-13 18:24 | 0.15520 | 9.62791 | 3507 ft | 169 kts | 146° |
| 2026-04-13 18:25 | 0.14562 | 9.63473 | 3506 ft | 169 kts | 146° |
| 2026-04-13 18:25 | 0.13602 | 9.64155 | 3509 ft | 170 kts | 146° |
| 2026-04-13 18:25 | 0.12643 | 9.64837 | 3509 ft | 170 kts | 146° |
| 2026-04-13 18:25 | 0.11684 | 9.65520 | 3508 ft | 170 kts | 146° |
| 2026-04-13 18:26 | 0.10725 | 9.66203 | 3509 ft | 170 kts | 146° |
| 2026-04-13 18:26 | 0.09764 | 9.66886 | 3507 ft | 170 kts | 146° |
| 2026-04-13 18:26 | 0.08801 | 9.67572 | 3508 ft | 170 kts | 146° |
| 2026-04-13 18:26 | 0.07839 | 9.68256 | 3513 ft | 170 kts | 146° |
| 2026-04-13 18:27 | 0.06878 | 9.68939 | 3513 ft | 170 kts | 146° |
| 2026-04-13 18:27 | 0.05917 | 9.69623 | 3514 ft | 170 kts | 146° |
| 2026-04-13 18:27 | 0.04957 | 9.70307 | 3513 ft | 170 kts | 146° |
| 2026-04-13 18:27 | 0.03996 | 9.70991 | 3514 ft | 170 kts | 146° |
| 2026-04-13 18:28 | 0.03035 | 9.71674 | 3514 ft | 170 kts | 146° |
| 2026-04-13 18:28 | 0.02077 | 9.72356 | 3508 ft | 170 kts | 146° |
| 2026-04-13 18:28 | 0.01117 | 9.73039 | 3512 ft | 170 kts | 146° |
| 2026-04-13 18:28 | 0.00159 | 9.73720 | 3505 ft | 169 kts | 146° |
| 2026-04-13 18:29 | -0.00797 | 9.74400 | 3508 ft | 169 kts | 146° |
| 2026-04-13 18:29 | -0.01753 | 9.75081 | 3516 ft | 169 kts | 146° |
| 2026-04-13 18:29 | -0.02712 | 9.75762 | 3513 ft | 169 kts | 146° |
| 2026-04-13 18:29 | -0.03670 | 9.76444 | 3516 ft | 170 kts | 146° |
| 2026-04-13 18:30 | -0.04631 | 9.77128 | 3512 ft | 170 kts | 146° |
| 2026-04-13 18:30 | -0.05589 | 9.77809 | 3509 ft | 169 kts | 146° |
| 2026-04-13 18:30 | -0.06546 | 9.78491 | 3511 ft | 169 kts | 146° |
| 2026-04-13 18:30 | -0.07506 | 9.79174 | 3511 ft | 170 kts | 146° |
| 2026-04-13 18:31 | -0.08467 | 9.79857 | 3513 ft | 170 kts | 146° |
| 2026-04-13 18:31 | -0.09426 | 9.80540 | 3516 ft | 170 kts | 146° |
| 2026-04-13 18:31 | -0.10385 | 9.81222 | 3518 ft | 169 kts | 146° |
| 2026-04-13 18:31 | -0.11343 | 9.81904 | 3514 ft | 170 kts | 146° |
| 2026-04-13 18:32 | -0.12302 | 9.82585 | 3515 ft | 169 kts | 146° |
| 2026-04-13 18:32 | -0.13257 | 9.83266 | 3512 ft | 169 kts | 146° |
| 2026-04-13 18:32 | -0.14216 | 9.83947 | 3515 ft | 170 kts | 146° |
| 2026-04-13 18:32 | -0.15173 | 9.84629 | 3517 ft | 170 kts | 146° |
| 2026-04-13 18:33 | -0.16135 | 9.85313 | 3516 ft | 170 kts | 146° |
| 2026-04-13 18:33 | -0.17094 | 9.85995 | 3514 ft | 169 kts | 146° |
| 2026-04-13 18:33 | -0.18051 | 9.86677 | 3514 ft | 170 kts | 146° |
| 2026-04-13 18:34 | -0.19971 | 9.88042 | 3516 ft | 170 kts | 146° |
| 2026-04-13 18:34 | -0.20932 | 9.88726 | 3517 ft | 170 kts | 146° |
| 2026-04-13 18:34 | -0.21894 | 9.89410 | 3516 ft | 170 kts | 146° |
| 2026-04-13 18:34 | -0.22857 | 9.90096 | 3515 ft | 170 kts | 146° |
| 2026-04-13 18:35 | -0.23821 | 9.90781 | 3512 ft | 171 kts | 146° |
| 2026-04-13 18:35 | -0.24784 | 9.91467 | 3514 ft | 170 kts | 146° |
| 2026-04-13 18:35 | -0.25744 | 9.92150 | 3515 ft | 170 kts | 146° |
| 2026-04-13 18:35 | -0.26702 | 9.92831 | 3511 ft | 169 kts | 146° |
| 2026-04-13 18:36 | -0.27660 | 9.93514 | 3515 ft | 169 kts | 146° |
| 2026-04-13 18:36 | -0.28617 | 9.94194 | 3518 ft | 170 kts | 146° |
| 2026-04-13 18:36 | -0.29577 | 9.94877 | 3517 ft | 170 kts | 146° |
| 2026-04-13 18:36 | -0.30538 | 9.95560 | 3517 ft | 170 kts | 146° |
| 2026-04-13 18:37 | -0.31180 | 9.96016 | 3515 ft | 170 kts | 146° |
| 2026-04-13 18:37 | -0.32461 | 9.96929 | 3520 ft | 170 kts | 146° |
| 2026-04-13 18:37 | -0.33423 | 9.97613 | 3519 ft | 170 kts | 146° |
| 2026-04-13 18:37 | -0.34386 | 9.98298 | 3520 ft | 170 kts | 146° |
| 2026-04-13 18:38 | -0.35346 | 9.98982 | 3515 ft | 170 kts | 146° |
| 2026-04-13 18:38 | -0.36308 | 9.99666 | 3519 ft | 170 kts | 146° |
| 2026-04-13 18:38 | -0.37267 | 10.00348 | 3517 ft | 170 kts | 146° |
| 2026-04-13 18:38 | -0.38225 | 10.01031 | 3518 ft | 170 kts | 146° |
| 2026-04-13 18:39 | -0.39185 | 10.01712 | 3515 ft | 170 kts | 146° |
| 2026-04-13 18:39 | -0.40144 | 10.02395 | 3517 ft | 170 kts | 146° |
| 2026-04-13 18:39 | -0.41103 | 10.03077 | 3521 ft | 169 kts | 146° |
| 2026-04-13 18:39 | -0.42059 | 10.03758 | 3519 ft | 169 kts | 146° |
| 2026-04-13 18:40 | -0.43016 | 10.04439 | 3517 ft | 169 kts | 146° |
| 2026-04-13 18:40 | -0.43972 | 10.05119 | 3516 ft | 169 kts | 146° |
| 2026-04-13 18:40 | -0.44929 | 10.05800 | 3517 ft | 170 kts | 146° |
| 2026-04-13 18:40 | -0.45893 | 10.06486 | 3378 ft | 169 kts | 146° |
| 2026-04-13 18:41 | -0.46856 | 10.07171 | 3224 ft | 172 kts | 146° |
| 2026-04-13 18:41 | -0.47830 | 10.07865 | 3033 ft | 172 kts | 146° |
| 2026-04-13 18:41 | -0.48799 | 10.08555 | 2814 ft | 171 kts | 146° |
| 2026-04-13 18:41 | -0.49765 | 10.09241 | 2597 ft | 170 kts | 146° |
| 2026-04-13 18:42 | -0.50725 | 10.09926 | 2388 ft | 169 kts | 146° |
| 2026-04-13 18:42 | -0.51683 | 10.10608 | 2155 ft | 169 kts | 146° |
| 2026-04-13 18:42 | -0.52641 | 10.11289 | 1941 ft | 169 kts | 146° |
| 2026-04-13 18:42 | -0.53599 | 10.11970 | 1723 ft | 169 kts | 146° |
| 2026-04-13 18:43 | -0.54554 | 10.12650 | 1531 ft | 167 kts | 146° |
| 2026-04-13 18:43 | -0.55467 | 10.13300 | 1530 ft | 158 kts | 146° |
| 2026-04-13 18:43 | -0.56313 | 10.13903 | 1525 ft | 144 kts | 146° |
| 2026-04-13 18:43 | -0.57059 | 10.14524 | 1517 ft | 137 kts | 136° |
| 2026-04-13 18:44 | -0.57706 | 10.15194 | 1522 ft | 132 kts | 135° |
| 2026-04-13 18:44 | -0.58290 | 10.15882 | 1517 ft | 130 kts | 127° |
| 2026-04-13 18:44 | -0.58840 | 10.16618 | 1519 ft | 135 kts | 128° |
| 2026-04-13 18:44 | -0.59406 | 10.17372 | 1528 ft | 137 kts | 128° |
| 2026-04-13 18:45 | -0.60009 | 10.18125 | 1531 ft | 141 kts | 132° |
| 2026-04-13 18:45 | -0.60654 | 10.18870 | 1529 ft | 143 kts | 131° |
| 2026-04-13 18:45 | -0.61305 | 10.19619 | 1508 ft | 144 kts | 132° |
| 2026-04-13 18:45 | -0.61964 | 10.20376 | 1505 ft | 145 kts | 132° |
| 2026-04-13 18:46 | -0.62619 | 10.21133 | 1508 ft | 144 kts | 132° |
| 2026-04-13 18:46 | -0.63274 | 10.21890 | 1501 ft | 144 kts | 132° |
| 2026-04-13 18:46 | -0.63926 | 10.22646 | 1505 ft | 144 kts | 132° |
| 2026-04-13 18:46 | -0.64577 | 10.23399 | 1506 ft | 143 kts | 132° |
| 2026-04-13 18:47 | -0.65228 | 10.24148 | 1505 ft | 143 kts | 132° |
| 2026-04-13 18:47 | -0.65879 | 10.24901 | 1508 ft | 144 kts | 132° |
| 2026-04-13 18:47 | -0.66641 | 10.25487 | 1583 ft | 137 kts | 156° |
| 2026-04-13 18:47 | -0.67518 | 10.25773 | 1396 ft | 127 kts | 173° |
| 2026-04-13 18:48 | -0.68359 | 10.25735 | 956 ft | 117 kts | 193° |
| 2026-04-13 18:48 | -0.69105 | 10.25497 | 561 ft | 110 kts | 204° |
| 2026-04-13 18:48 | -0.69756 | 10.25123 | 174 ft | 104 kts | 216° |
| 2026-04-13 18:48 | -0.70249 | 10.24701 | 76 ft | 80 kts | 221° |
| 2026-04-13 18:49 | -0.70661 | 10.24334 | 168 ft | 87 kts | 221° |
| 2026-04-13 18:49 | -0.71099 | 10.23906 | 400 ft | 85 kts | 233° |
| 2026-04-13 18:49 | -0.71309 | 10.23386 | 689 ft | 84 kts | 259° |
| 2026-04-13 18:49 | -0.71544 | 10.22833 | 908 ft | 96 kts | 214° |
| 2026-04-13 18:50 | -0.72138 | 10.22639 | 1277 ft | 86 kts | 223° |
| 2026-04-13 18:50 | -0.72144 | 10.22113 | 1598 ft | 84 kts | 303° |
| 2026-04-13 18:50 | -0.71852 | 10.21607 | 1901 ft | 84 kts | 296° |
| 2026-04-13 18:50 | -0.71566 | 10.21092 | 2210 ft | 85 kts | 296° |
| 2026-04-13 18:51 | -0.71274 | 10.20579 | 2496 ft | 89 kts | 297° |
| 2026-04-13 18:51 | -0.70921 | 10.19953 | 2513 ft | 116 kts | 298° |
| 2026-04-13 18:51 | -0.70495 | 10.19195 | 2514 ft | 134 kts | 298° |
| 2026-04-13 18:51 | -0.70024 | 10.18353 | 2516 ft | 144 kts | 298° |
| 2026-04-13 18:52 | -0.69506 | 10.17474 | 2513 ft | 150 kts | 300° |
| 2026-04-13 18:52 | -0.69069 | 10.16520 | 2511 ft | 153 kts | 285° |
| 2026-04-13 18:52 | -0.68963 | 10.15460 | 2510 ft | 155 kts | 270° |
| 2026-04-13 18:52 | -0.68976 | 10.14382 | 2514 ft | 156 kts | 269° |
| 2026-04-13 18:53 | -0.68999 | 10.13295 | 2512 ft | 157 kts | 269° |
| 2026-04-13 18:53 | -0.69022 | 10.12206 | 2510 ft | 157 kts | 269° |
| 2026-04-13 18:53 | -0.69046 | 10.11115 | 2508 ft | 158 kts | 269° |
| 2026-04-13 18:53 | -0.69070 | 10.10018 | 2511 ft | 158 kts | 269° |
| 2026-04-13 18:54 | -0.69093 | 10.08922 | 2514 ft | 158 kts | 269° |
| 2026-04-13 18:54 | -0.69114 | 10.07828 | 2510 ft | 158 kts | 269° |
| 2026-04-13 18:54 | -0.69139 | 10.06736 | 2507 ft | 157 kts | 269° |
| 2026-04-13 18:54 | -0.69163 | 10.05646 | 2510 ft | 158 kts | 269° |
| 2026-04-13 18:55 | -0.69186 | 10.04553 | 2509 ft | 157 kts | 269° |
| 2026-04-13 18:55 | -0.69208 | 10.03462 | 2509 ft | 157 kts | 269° |
| 2026-04-13 18:55 | -0.69231 | 10.02372 | 2510 ft | 157 kts | 269° |
| 2026-04-13 18:55 | -0.69255 | 10.01282 | 2514 ft | 157 kts | 269° |
| 2026-04-13 18:56 | -0.69273 | 10.00189 | 2511 ft | 158 kts | 269° |
| 2026-04-13 18:56 | -0.69299 | 9.99091 | 2509 ft | 158 kts | 269° |
| 2026-04-13 18:56 | -0.69324 | 9.97995 | 2507 ft | 158 kts | 269° |
| 2026-04-13 18:56 | -0.69348 | 9.96897 | 2512 ft | 159 kts | 269° |
| 2026-04-13 18:57 | -0.69371 | 9.95794 | 2510 ft | 159 kts | 269° |
| 2026-04-13 18:57 | -0.69394 | 9.94691 | 2507 ft | 159 kts | 269° |
| 2026-04-13 18:57 | -0.69417 | 9.93598 | 2509 ft | 155 kts | 269° |
| 2026-04-13 18:57 | -0.69439 | 9.92538 | 2508 ft | 151 kts | 269° |
| 2026-04-13 18:58 | -0.69462 | 9.91503 | 2503 ft | 148 kts | 269° |
| 2026-04-13 18:58 | -0.69483 | 9.90482 | 2508 ft | 146 kts | 269° |
| 2026-04-13 18:58 | -0.69504 | 9.89471 | 2509 ft | 146 kts | 269° |
| 2026-04-13 18:58 | -0.69525 | 9.88454 | 2506 ft | 146 kts | 269° |
| 2026-04-13 18:59 | -0.69549 | 9.87443 | 2505 ft | 146 kts | 269° |
| 2026-04-13 18:59 | -0.69569 | 9.86437 | 2506 ft | 145 kts | 269° |
| 2026-04-13 18:59 | -0.69588 | 9.85437 | 2505 ft | 144 kts | 269° |
| 2026-04-13 18:59 | -0.69611 | 9.84437 | 2503 ft | 144 kts | 269° |
| 2026-04-13 19:00 | -0.69626 | 9.83772 | 2507 ft | 144 kts | 269° |
| 2026-04-13 19:00 | -0.69653 | 9.82449 | 2507 ft | 143 kts | 269° |
| 2026-04-13 19:00 | -0.69674 | 9.81458 | 2505 ft | 143 kts | 269° |
| 2026-04-13 19:00 | -0.69695 | 9.80467 | 2505 ft | 143 kts | 269° |
| 2026-04-13 19:01 | -0.69716 | 9.79477 | 2509 ft | 143 kts | 269° |
| 2026-04-13 19:01 | -0.69737 | 9.78485 | 2508 ft | 143 kts | 269° |
| 2026-04-13 19:01 | -0.69758 | 9.77497 | 2503 ft | 141 kts | 269° |
| 2026-04-13 19:01 | -0.69778 | 9.76525 | 2507 ft | 140 kts | 269° |
| 2026-04-13 19:02 | -0.69799 | 9.75561 | 2504 ft | 138 kts | 269° |
| 2026-04-13 19:02 | -0.69819 | 9.74605 | 2507 ft | 138 kts | 269° |
| 2026-04-13 19:02 | -0.69839 | 9.73653 | 2508 ft | 137 kts | 269° |
| 2026-04-13 19:02 | -0.69859 | 9.72704 | 2505 ft | 137 kts | 269° |
| 2026-04-13 19:03 | -0.69879 | 9.71759 | 2507 ft | 136 kts | 269° |
| 2026-04-13 19:03 | -0.69899 | 9.70816 | 2504 ft | 136 kts | 269° |
| 2026-04-13 19:03 | -0.69919 | 9.69872 | 2504 ft | 136 kts | 269° |
| 2026-04-13 19:03 | -0.69939 | 9.68924 | 2504 ft | 137 kts | 269° |
| 2026-04-13 19:04 | -0.69959 | 9.67975 | 2507 ft | 137 kts | 269° |
| 2026-04-13 19:04 | -0.69978 | 9.67022 | 2507 ft | 137 kts | 269° |
| 2026-04-13 19:04 | -0.69999 | 9.66060 | 2510 ft | 143 kts | 269° |
| 2026-04-13 19:04 | -0.70021 | 9.65045 | 2514 ft | 149 kts | 269° |
| 2026-04-13 19:05 | -0.70042 | 9.63995 | 2521 ft | 153 kts | 269° |
| 2026-04-13 19:05 | -0.70064 | 9.62925 | 2519 ft | 155 kts | 269° |
| 2026-04-13 19:05 | -0.70087 | 9.61845 | 2520 ft | 157 kts | 269° |
| 2026-04-13 19:05 | -0.70110 | 9.60756 | 2521 ft | 157 kts | 269° |
| 2026-04-13 19:06 | -0.70133 | 9.59663 | 2519 ft | 158 kts | 269° |
| 2026-04-13 19:06 | -0.70156 | 9.58561 | 2515 ft | 161 kts | 269° |
| 2026-04-13 19:06 | -0.70180 | 9.57442 | 2516 ft | 161 kts | 269° |
| 2026-04-13 19:06 | -0.70204 | 9.56323 | 2511 ft | 162 kts | 269° |
| 2026-04-13 19:07 | -0.70227 | 9.55201 | 2512 ft | 162 kts | 269° |
| 2026-04-13 19:07 | -0.70251 | 9.54075 | 2513 ft | 162 kts | 269° |
| 2026-04-13 19:07 | -0.70273 | 9.52952 | 2511 ft | 161 kts | 269° |
| 2026-04-13 19:07 | -0.70299 | 9.51837 | 2513 ft | 161 kts | 269° |
| 2026-04-13 19:08 | -0.70322 | 9.50724 | 2515 ft | 161 kts | 269° |
| 2026-04-13 19:08 | -0.70345 | 9.49601 | 2509 ft | 162 kts | 269° |
| 2026-04-13 19:08 | -0.70369 | 9.48487 | 2513 ft | 161 kts | 269° |
| 2026-04-13 19:08 | -0.70393 | 9.47367 | 2509 ft | 162 kts | 269° |
| 2026-04-13 19:09 | -0.70416 | 9.46252 | 2506 ft | 160 kts | 269° |
| 2026-04-13 19:09 | -0.70439 | 9.45143 | 2508 ft | 160 kts | 269° |
| 2026-04-13 19:09 | -0.70462 | 9.44040 | 2509 ft | 159 kts | 269° |
| 2026-04-13 19:09 | -0.70485 | 9.42938 | 2509 ft | 159 kts | 269° |
| 2026-04-13 19:10 | -0.70508 | 9.41834 | 2508 ft | 159 kts | 269° |
| 2026-04-13 19:10 | -0.70532 | 9.40733 | 2505 ft | 159 kts | 269° |
| 2026-04-13 19:10 | -0.70556 | 9.39631 | 2506 ft | 159 kts | 269° |
| 2026-04-13 19:10 | -0.70578 | 9.38529 | 2509 ft | 159 kts | 270° |
| 2026-04-13 19:11 | -0.70601 | 9.37427 | 2511 ft | 159 kts | 269° |
| 2026-04-13 19:11 | -0.70625 | 9.36324 | 2503 ft | 159 kts | 269° |
| 2026-04-13 19:11 | -0.70648 | 9.35220 | 2508 ft | 160 kts | 270° |
| 2026-04-13 19:11 | -0.70671 | 9.34112 | 2507 ft | 160 kts | 269° |
| 2026-04-13 19:12 | -0.70694 | 9.33004 | 2509 ft | 160 kts | 270° |
| 2026-04-13 19:12 | -0.70717 | 9.31893 | 2510 ft | 160 kts | 269° |
| 2026-04-13 19:12 | -0.70741 | 9.30783 | 2512 ft | 160 kts | 270° |
| 2026-04-13 19:12 | -0.70764 | 9.29674 | 2509 ft | 160 kts | 270° |
| 2026-04-13 19:13 | -0.70787 | 9.28563 | 2508 ft | 160 kts | 269° |
| 2026-04-13 19:13 | -0.70811 | 9.27453 | 2511 ft | 160 kts | 269° |
| 2026-04-13 19:13 | -0.70834 | 9.26344 | 2510 ft | 160 kts | 270° |
| 2026-04-13 19:13 | -0.70857 | 9.25236 | 2509 ft | 160 kts | 270° |
| 2026-04-13 19:14 | -0.70880 | 9.24132 | 2502 ft | 159 kts | 270° |
| 2026-04-13 19:14 | -0.70904 | 9.23032 | 2506 ft | 159 kts | 270° |
| 2026-04-13 19:14 | -0.70927 | 9.21932 | 2507 ft | 159 kts | 270° |
| 2026-04-13 19:14 | -0.70950 | 9.20831 | 2507 ft | 159 kts | 270° |
| 2026-04-13 19:15 | -0.70973 | 9.19727 | 2508 ft | 159 kts | 269° |
| 2026-04-13 19:15 | -0.70997 | 9.18620 | 2511 ft | 160 kts | 269° |
| 2026-04-13 19:15 | -0.71020 | 9.17503 | 2511 ft | 162 kts | 270° |
| 2026-04-13 19:15 | -0.71042 | 9.16381 | 2512 ft | 162 kts | 269° |
| 2026-04-13 19:16 | -0.71067 | 9.15256 | 2506 ft | 162 kts | 269° |
| 2026-04-13 19:16 | -0.71091 | 9.14133 | 2507 ft | 162 kts | 270° |
| 2026-04-13 19:16 | -0.71114 | 9.13014 | 2508 ft | 161 kts | 270° |
| 2026-04-13 19:16 | -0.71137 | 9.11898 | 2505 ft | 161 kts | 269° |
| 2026-04-13 19:17 | -0.71161 | 9.10787 | 2507 ft | 160 kts | 269° |
| 2026-04-13 19:17 | -0.71184 | 9.09678 | 2509 ft | 160 kts | 269° |
| 2026-04-13 19:17 | -0.71207 | 9.08567 | 2506 ft | 160 kts | 269° |
| 2026-04-13 19:17 | -0.71230 | 9.07458 | 2502 ft | 160 kts | 270° |
| 2026-04-13 19:18 | -0.71254 | 9.06349 | 2503 ft | 160 kts | 269° |
| 2026-04-13 19:18 | -0.71277 | 9.05237 | 2502 ft | 161 kts | 269° |
| 2026-04-13 19:18 | -0.71299 | 9.04122 | 2502 ft | 161 kts | 269° |
| 2026-04-13 19:18 | -0.71324 | 9.03004 | 2508 ft | 162 kts | 269° |
| 2026-04-13 19:19 | -0.71347 | 9.01886 | 2500 ft | 160 kts | 269° |
| 2026-04-13 19:19 | -0.71370 | 9.00778 | 2504 ft | 161 kts | 269° |
| 2026-04-13 19:19 | -0.71394 | 8.99646 | 2503 ft | 165 kts | 269° |
| 2026-04-13 19:19 | -0.71418 | 8.98494 | 2502 ft | 167 kts | 269° |
| 2026-04-13 19:20 | -0.71442 | 8.97326 | 2481 ft | 171 kts | 269° |
| 2026-04-13 19:20 | -0.71468 | 8.96114 | 2338 ft | 178 kts | 269° |
| 2026-04-13 19:20 | -0.71493 | 8.94861 | 2187 ft | 182 kts | 269° |
| 2026-04-13 19:20 | -0.71433 | 8.93599 | 2040 ft | 183 kts | 278° |
| 2026-04-13 19:21 | -0.71210 | 8.92348 | 1901 ft | 184 kts | 280° |
| 2026-04-13 19:21 | -0.70997 | 8.91088 | 1755 ft | 185 kts | 279° |
| 2026-04-13 19:21 | -0.70786 | 8.89827 | 1614 ft | 185 kts | 279° |
| 2026-04-13 19:21 | -0.70574 | 8.88562 | 1466 ft | 185 kts | 279° |
| 2026-04-13 19:22 | -0.70361 | 8.87294 | 1318 ft | 186 kts | 279° |
| 2026-04-13 19:22 | -0.70148 | 8.86028 | 1206 ft | 184 kts | 280° |
| 2026-04-13 19:22 | -0.69922 | 8.84795 | 1205 ft | 178 kts | 281° |
| 2026-04-13 19:22 | -0.69670 | 8.83600 | 1204 ft | 175 kts | 282° |
| 2026-04-13 19:23 | -0.69408 | 8.82424 | 1202 ft | 173 kts | 282° |
| 2026-04-13 19:23 | -0.69147 | 8.81254 | 1198 ft | 173 kts | 282° |
| 2026-04-13 19:23 | -0.68895 | 8.80131 | 1203 ft | 150 kts | 283° |
| 2026-04-13 19:23 | -0.68695 | 8.79228 | 1160 ft | 116 kts | 281° |
| 2026-04-13 19:24 | -0.68656 | 8.78470 | 978 ft | 105 kts | 265° |
| 2026-04-13 19:24 | -0.68772 | 8.77759 | 857 ft | 102 kts | 255° |
| 2026-04-13 19:24 | -0.68998 | 8.77091 | 718 ft | 102 kts | 247° |
| 2026-04-13 19:24 | -0.69354 | 8.76471 | 518 ft | 101 kts | 231° |
| 2026-04-13 19:25 | -0.69848 | 8.76045 | 294 ft | 94 kts | 212° |
| 2026-04-13 19:25 | -0.70421 | 8.75761 | 101 ft | 91 kts | 206° |
| 2026-04-13 19:25 | -0.70966 | 8.75530 | 28 ft | 78 kts | 202° |
| 2026-04-13 19:25 | -0.71423 | 8.75348 | 16 ft | 64 kts | 202° |
| 2026-04-13 19:26 | -0.71689 | 8.75237 | 18 ft | 20 kts | 196° |
| 2026-04-13 19:26 | -0.71774 | 8.75275 | 17 ft | 13 kts | 122° |
| 2026-04-13 19:26 | -0.71797 | 8.75321 | 16 ft | 5 kts | 139° |
| 2026-04-13 19:26 | -0.71829 | 8.75325 | 16 ft | 4 kts | 191° |
| 2026-04-13 19:27 | -0.71887 | 8.75306 | 16 ft | 14 kts | 201° |
| 2026-04-13 19:27 | -0.71976 | 8.75277 | 16 ft | 12 kts | 193° |
| 2026-04-13 19:27 | -0.72046 | 8.75247 | 16 ft | 8 kts | 245° |
| 2026-04-13 19:27 | -0.72047 | 8.75233 | 16 ft | 0 kts | 290° |